This is the latest recevied weather packets stored in our database for station/object K0NV. If no packets are shown the sender has not sent any weather packets the latest 10 day(s).
| Time | Temp. | Humidity | Pressure | Rain* | Wind** | Luminosity | Snow |
|---|---|---|---|---|---|---|---|
| 1778214276 | 13.33° C | 68% | 1016 hPa | 0 mm | - | 0 W/m² | - |
| 1778213973 | 13.33° C | 68% | 1015.8 hPa | 0 mm | - | 0 W/m² | - |
| 1778213669 | 13.33° C | 68% | 1016.2 hPa | 0 mm | - | 0 W/m² | - |
| 1778213367 | 13.33° C | 68% | 1016.3 hPa | 0 mm | - | 0 W/m² | - |
| 1778213063 | 13.33° C | 68% | 1016 hPa | 0 mm | - | 0 W/m² | - |
| 1778212761 | 13.33° C | 68% | 1016.3 hPa | 0 mm | - | 0 W/m² | - |
| 1778212457 | 13.33° C | 68% | 1016.4 hPa | 0 mm | - | 0 W/m² | - |
| 1778212154 | 12.78° C | 70% | 1016.3 hPa | 0 mm | - | 0 W/m² | - |
| 1778211852 | 12.22° C | 73% | 1016.2 hPa | 0 mm | - | 0 W/m² | - |
| 1778211548 | 12.78° C | 73% | 1016.2 hPa | 0 mm | - | 0 W/m² | - |
| 1778211247 | 13.33° C | 71% | 1016.3 hPa | 0 mm | - | 0 W/m² | - |
| 1778210944 | 13.89° C | 66% | 1016.4 hPa | 0 mm | - | 0 W/m² | - |
| 1778210641 | 13.89° C | 66% | 1016.3 hPa | 0 mm | - | 0 W/m² | - |
| 1778210338 | 13.89° C | 66% | 1016.4 hPa | 0 mm | - | 0 W/m² | - |
| 1778210035 | 13.89° C | 67% | 1016.4 hPa | 0 mm | - | 0 W/m² | - |
| 1778209730 | 13.89° C | 66% | 1016.4 hPa | 0 mm | - | 0 W/m² | - |
| 1778209428 | 13.89° C | 66% | 1016.5 hPa | 0 mm | - | 0 W/m² | - |
| 1778209125 | 13.89° C | 66% | 1016.4 hPa | 0 mm | - | 0 W/m² | - |
| 1778208822 | 13.89° C | 66% | 1016.4 hPa | 0 mm | - | 0 W/m² | - |
| 1778208519 | 13.89° C | 66% | 1016.4 hPa | 0 mm | - | 0 W/m² | - |
| 1778208215 | 13.89° C | 66% | 1016.1 hPa | 0 mm | - | 0 W/m² | - |
| 1778207912 | 13.89° C | 67% | 1016.3 hPa | 0 mm | - | 0 W/m² | - |
| 1778207608 | 13.89° C | 66% | 1015.9 hPa | 0 mm | - | 0 W/m² | - |
| 1778207305 | 13.89° C | 66% | 1016 hPa | 0 mm | - | 0 W/m² | - |
| 1778206995 | 13.89° C | 66% | 1015.7 hPa | 0 mm | - | 0 W/m² | - |
* Rain latest hour (hover to see other rain measurements)
** Current wind speed in m/s (hover to see current wind gust speed)